sensor_id;sensor_type;location;lat;lon;timestamp;P1;durP1;ratioP1;P2;durP2;ratioP2
21810;SDS011;11067;48.788;9.208;2023-06-22T00:02:12;12.27;;;6.60;;
21810;SDS011;11067;48.788;9.208;2023-06-22T00:04:38;11.97;;;6.80;;
21810;SDS011;11067;48.788;9.208;2023-06-22T00:07:04;12.75;;;6.53;;
21810;SDS011;11067;48.788;9.208;2023-06-22T00:09:30;8.75;;;6.07;;
21810;SDS011;11067;48.788;9.208;2023-06-22T00:11:57;10.05;;;6.93;;
21810;SDS011;11067;48.788;9.208;2023-06-22T00:14:23;11.55;;;6.82;;
21810;SDS011;11067;48.788;9.208;2023-06-22T00:16:49;12.00;;;6.70;;
21810;SDS011;11067;48.788;9.208;2023-06-22T00:19:20;11.07;;;7.03;;
21810;SDS011;11067;48.788;9.208;2023-06-22T00:21:47;12.10;;;6.70;;
21810;SDS011;11067;48.788;9.208;2023-06-22T00:24:17;10.63;;;6.93;;
21810;SDS011;11067;48.788;9.208;2023-06-22T00:26:43;9.40;;;6.32;;
21810;SDS011;11067;48.788;9.208;2023-06-22T00:29:09;10.55;;;6.70;;
21810;SDS011;11067;48.788;9.208;2023-06-22T00:31:35;10.55;;;6.53;;
21810;SDS011;11067;48.788;9.208;2023-06-22T00:34:01;8.77;;;6.60;;
21810;SDS011;11067;48.788;9.208;2023-06-22T00:36:27;9.52;;;6.68;;
21810;SDS011;11067;48.788;9.208;2023-06-22T00:38:53;13.60;;;7.30;;
21810;SDS011;11067;48.788;9.208;2023-06-22T00:41:19;11.27;;;6.93;;
21810;SDS011;11067;48.788;9.208;2023-06-22T00:43:45;11.32;;;6.70;;
21810;SDS011;11067;48.788;9.208;2023-06-22T00:46:11;10.98;;;6.80;;
21810;SDS011;11067;48.788;9.208;2023-06-22T00:48:37;10.02;;;6.75;;
21810;SDS011;11067;48.788;9.208;2023-06-22T00:51:05;12.90;;;6.95;;
21810;SDS011;11067;48.788;9.208;2023-06-22T00:53:31;13.70;;;6.68;;
21810;SDS011;11067;48.788;9.208;2023-06-22T00:56:00;10.20;;;6.65;;
21810;SDS011;11067;48.788;9.208;2023-06-22T00:58:28;13.00;;;6.80;;
21810;SDS011;11067;48.788;9.208;2023-06-22T01:00:54;10.52;;;7.15;;
21810;SDS011;11067;48.788;9.208;2023-06-22T01:03:20;9.07;;;6.40;;
21810;SDS011;11067;48.788;9.208;2023-06-22T01:05:46;11.00;;;6.83;;
21810;SDS011;11067;48.788;9.208;2023-06-22T01:14:10;9.85;;;6.93;;
21810;SDS011;11067;48.788;9.208;2023-06-22T01:16:08;9.93;;;6.78;;
21810;SDS011;11067;48.788;9.208;2023-06-22T01:18:36;12.48;;;7.20;;
21810;SDS011;11067;48.788;9.208;2023-06-22T01:21:04;9.60;;;7.05;;
21810;SDS011;11067;48.788;9.208;2023-06-22T01:26:22;11.23;;;7.00;;
21810;SDS011;11067;48.788;9.208;2023-06-22T01:28:53;9.80;;;6.83;;
21810;SDS011;11067;48.788;9.208;2023-06-22T01:31:26;12.80;;;7.60;;
21810;SDS011;11067;48.788;9.208;2023-06-22T01:33:55;12.30;;;7.15;;
21810;SDS011;11067;48.788;9.208;2023-06-22T01:36:22;14.38;;;7.32;;
21810;SDS011;11067;48.788;9.208;2023-06-22T01:38:49;10.90;;;7.37;;
21810;SDS011;11067;48.788;9.208;2023-06-22T01:41:16;9.93;;;6.90;;
21810;SDS011;11067;48.788;9.208;2023-06-22T01:43:42;9.47;;;6.77;;
21810;SDS011;11067;48.788;9.208;2023-06-22T01:46:08;10.95;;;7.03;;
21810;SDS011;11067;48.788;9.208;2023-06-22T01:48:36;13.30;;;7.80;;
21810;SDS011;11067;48.788;9.208;2023-06-22T01:51:02;11.00;;;7.10;;
21810;SDS011;11067;48.788;9.208;2023-06-22T01:53:28;12.07;;;7.38;;
21810;SDS011;11067;48.788;9.208;2023-06-22T01:55:55;10.77;;;7.60;;
21810;SDS011;11067;48.788;9.208;2023-06-22T01:58:23;11.45;;;7.30;;
21810;SDS011;11067;48.788;9.208;2023-06-22T02:00:51;12.55;;;7.30;;
21810;SDS011;11067;48.788;9.208;2023-06-22T02:03:19;11.97;;;7.30;;
21810;SDS011;11067;48.788;9.208;2023-06-22T02:05:49;16.33;;;6.90;;
21810;SDS011;11067;48.788;9.208;2023-06-22T02:08:17;14.23;;;8.02;;
21810;SDS011;11067;48.788;9.208;2023-06-22T02:10:45;12.65;;;7.72;;
21810;SDS011;11067;48.788;9.208;2023-06-22T02:13:12;15.65;;;7.78;;
21810;SDS011;11067;48.788;9.208;2023-06-22T02:15:38;11.30;;;7.15;;
21810;SDS011;11067;48.788;9.208;2023-06-22T02:18:04;13.80;;;7.07;;
21810;SDS011;11067;48.788;9.208;2023-06-22T02:20:31;11.60;;;7.47;;
21810;SDS011;11067;48.788;9.208;2023-06-22T02:22:56;11.40;;;7.90;;
21810;SDS011;11067;48.788;9.208;2023-06-22T02:25:22;9.43;;;7.30;;
21810;SDS011;11067;48.788;9.208;2023-06-22T02:27:48;11.63;;;7.65;;
21810;SDS011;11067;48.788;9.208;2023-06-22T02:30:14;11.63;;;7.10;;
21810;SDS011;11067;48.788;9.208;2023-06-22T02:32:41;11.15;;;7.55;;
21810;SDS011;11067;48.788;9.208;2023-06-22T02:35:07;13.77;;;7.85;;
21810;SDS011;11067;48.788;9.208;2023-06-22T02:37:35;12.70;;;7.45;;
21810;SDS011;11067;48.788;9.208;2023-06-22T02:40:03;12.13;;;7.47;;
21810;SDS011;11067;48.788;9.208;2023-06-22T02:42:30;12.77;;;7.72;;
21810;SDS011;11067;48.788;9.208;2023-06-22T02:44:56;9.90;;;7.28;;
21810;SDS011;11067;48.788;9.208;2023-06-22T02:47:22;11.32;;;7.32;;
21810;SDS011;11067;48.788;9.208;2023-06-22T02:49:48;10.27;;;7.43;;
21810;SDS011;11067;48.788;9.208;2023-06-22T02:52:14;12.03;;;8.10;;
21810;SDS011;11067;48.788;9.208;2023-06-22T02:54:39;13.02;;;7.88;;
21810;SDS011;11067;48.788;9.208;2023-06-22T02:57:05;13.40;;;7.75;;
21810;SDS011;11067;48.788;9.208;2023-06-22T02:59:31;10.93;;;7.18;;
21810;SDS011;11067;48.788;9.208;2023-06-22T03:01:57;11.07;;;7.50;;
21810;SDS011;11067;48.788;9.208;2023-06-22T03:04:23;11.32;;;7.75;;
21810;SDS011;11067;48.788;9.208;2023-06-22T03:06:49;11.85;;;7.10;;
21810;SDS011;11067;48.788;9.208;2023-06-22T03:09:16;12.93;;;7.53;;
21810;SDS011;11067;48.788;9.208;2023-06-22T03:11:42;10.93;;;7.30;;
21810;SDS011;11067;48.788;9.208;2023-06-22T03:14:08;13.90;;;7.85;;
21810;SDS011;11067;48.788;9.208;2023-06-22T03:16:34;14.02;;;8.32;;
21810;SDS011;11067;48.788;9.208;2023-06-22T03:19:00;12.27;;;7.75;;
21810;SDS011;11067;48.788;9.208;2023-06-22T03:21:29;10.32;;;7.40;;
21810;SDS011;11067;48.788;9.208;2023-06-22T03:23:55;14.35;;;8.13;;
21810;SDS011;11067;48.788;9.208;2023-06-22T03:26:21;10.43;;;7.72;;
21810;SDS011;11067;48.788;9.208;2023-06-22T03:28:48;12.10;;;7.90;;
21810;SDS011;11067;48.788;9.208;2023-06-22T03:31:14;11.43;;;7.43;;
21810;SDS011;11067;48.788;9.208;2023-06-22T03:33:40;13.73;;;7.65;;
21810;SDS011;11067;48.788;9.208;2023-06-22T03:36:06;12.50;;;7.65;;
21810;SDS011;11067;48.788;9.208;2023-06-22T03:38:33;12.68;;;7.60;;
21810;SDS011;11067;48.788;9.208;2023-06-22T03:40:59;12.13;;;7.82;;
21810;SDS011;11067;48.788;9.208;2023-06-22T03:43:25;12.93;;;7.63;;
21810;SDS011;11067;48.788;9.208;2023-06-22T03:45:51;15.40;;;7.72;;
21810;SDS011;11067;48.788;9.208;2023-06-22T03:48:17;11.38;;;7.07;;
21810;SDS011;11067;48.788;9.208;2023-06-22T03:50:43;11.40;;;7.40;;
21810;SDS011;11067;48.788;9.208;2023-06-22T03:53:09;13.55;;;7.57;;
21810;SDS011;11067;48.788;9.208;2023-06-22T03:55:35;12.45;;;7.60;;
21810;SDS011;11067;48.788;9.208;2023-06-22T03:58:02;11.30;;;7.97;;
21810;SDS011;11067;48.788;9.208;2023-06-22T04:00:30;12.60;;;7.47;;
21810;SDS011;11067;48.788;9.208;2023-06-22T04:02:56;13.97;;;7.47;;
21810;SDS011;11067;48.788;9.208;2023-06-22T04:05:22;11.83;;;7.27;;
21810;SDS011;11067;48.788;9.208;2023-06-22T04:07:49;12.13;;;7.80;;
21810;SDS011;11067;48.788;9.208;2023-06-22T04:10:15;13.27;;;7.78;;
21810;SDS011;11067;48.788;9.208;2023-06-22T04:12:41;10.73;;;7.72;;
21810;SDS011;11067;48.788;9.208;2023-06-22T04:15:07;10.50;;;7.70;;
21810;SDS011;11067;48.788;9.208;2023-06-22T04:17:33;13.85;;;7.10;;
21810;SDS011;11067;48.788;9.208;2023-06-22T04:19:59;9.55;;;7.20;;
21810;SDS011;11067;48.788;9.208;2023-06-22T04:22:25;12.10;;;7.85;;
21810;SDS011;11067;48.788;9.208;2023-06-22T04:24:51;10.23;;;7.65;;
21810;SDS011;11067;48.788;9.208;2023-06-22T04:27:17;12.30;;;7.82;;
21810;SDS011;11067;48.788;9.208;2023-06-22T04:29:44;11.32;;;7.72;;
21810;SDS011;11067;48.788;9.208;2023-06-22T04:32:13;16.77;;;8.65;;
21810;SDS011;11067;48.788;9.208;2023-06-22T04:34:40;11.43;;;8.23;;
21810;SDS011;11067;48.788;9.208;2023-06-22T04:37:05;13.43;;;8.00;;
21810;SDS011;11067;48.788;9.208;2023-06-22T04:39:31;11.00;;;8.00;;
21810;SDS011;11067;48.788;9.208;2023-06-22T04:41:57;11.52;;;7.53;;
21810;SDS011;11067;48.788;9.208;2023-06-22T04:44:25;11.67;;;7.87;;
21810;SDS011;11067;48.788;9.208;2023-06-22T04:46:58;11.77;;;7.55;;
21810;SDS011;11067;48.788;9.208;2023-06-22T04:49:29;12.80;;;7.80;;
21810;SDS011;11067;48.788;9.208;2023-06-22T04:52:01;12.27;;;7.65;;
21810;SDS011;11067;48.788;9.208;2023-06-22T04:54:28;10.90;;;7.40;;
21810;SDS011;11067;48.788;9.208;2023-06-22T04:56:54;11.50;;;7.85;;
21810;SDS011;11067;48.788;9.208;2023-06-22T04:59:27;10.57;;;6.77;;
21810;SDS011;11067;48.788;9.208;2023-06-22T05:01:54;17.27;;;7.15;;
21810;SDS011;11067;48.788;9.208;2023-06-22T05:04:21;12.90;;;7.07;;
21810;SDS011;11067;48.788;9.208;2023-06-22T05:06:48;12.17;;;7.50;;
21810;SDS011;11067;48.788;9.208;2023-06-22T05:09:14;13.10;;;6.72;;
21810;SDS011;11067;48.788;9.208;2023-06-22T05:11:40;10.57;;;6.90;;
21810;SDS011;11067;48.788;9.208;2023-06-22T05:14:06;10.98;;;6.80;;
21810;SDS011;11067;48.788;9.208;2023-06-22T05:16:32;11.50;;;6.93;;
21810;SDS011;11067;48.788;9.208;2023-06-22T05:18:58;9.15;;;6.47;;
21810;SDS011;11067;48.788;9.208;2023-06-22T05:21:25;10.33;;;6.47;;
21810;SDS011;11067;48.788;9.208;2023-06-22T05:23:55;8.70;;;5.50;;
21810;SDS011;11067;48.788;9.208;2023-06-22T05:26:25;9.55;;;6.15;;
21810;SDS011;11067;48.788;9.208;2023-06-22T05:28:51;9.48;;;5.88;;
21810;SDS011;11067;48.788;9.208;2023-06-22T05:31:17;9.73;;;5.72;;
21810;SDS011;11067;48.788;9.208;2023-06-22T05:33:44;8.90;;;5.90;;
21810;SDS011;11067;48.788;9.208;2023-06-22T05:36:13;11.38;;;5.70;;
21810;SDS011;11067;48.788;9.208;2023-06-22T05:38:40;9.73;;;5.70;;
21810;SDS011;11067;48.788;9.208;2023-06-22T05:41:06;10.18;;;5.65;;
21810;SDS011;11067;48.788;9.208;2023-06-22T05:43:32;12.57;;;5.72;;
21810;SDS011;11067;48.788;9.208;2023-06-22T05:45:59;8.73;;;5.53;;
21810;SDS011;11067;48.788;9.208;2023-06-22T05:48:25;7.68;;;5.40;;
21810;SDS011;11067;48.788;9.208;2023-06-22T05:50:51;7.93;;;5.80;;
21810;SDS011;11067;48.788;9.208;2023-06-22T05:53:17;9.37;;;5.50;;
21810;SDS011;11067;48.788;9.208;2023-06-22T05:55:43;12.38;;;5.93;;
21810;SDS011;11067;48.788;9.208;2023-06-22T05:58:09;8.45;;;5.55;;
21810;SDS011;11067;48.788;9.208;2023-06-22T06:00:35;7.68;;;5.35;;
21810;SDS011;11067;48.788;9.208;2023-06-22T06:03:01;8.40;;;5.78;;
21810;SDS011;11067;48.788;9.208;2023-06-22T06:05:31;7.90;;;5.40;;
21810;SDS011;11067;48.788;9.208;2023-06-22T06:07:58;8.55;;;5.22;;
21810;SDS011;11067;48.788;9.208;2023-06-22T06:10:24;10.57;;;5.85;;
21810;SDS011;11067;48.788;9.208;2023-06-22T06:12:50;10.27;;;6.00;;
21810;SDS011;11067;48.788;9.208;2023-06-22T06:15:16;8.00;;;5.50;;
21810;SDS011;11067;48.788;9.208;2023-06-22T06:17:49;10.07;;;5.80;;
21810;SDS011;11067;48.788;9.208;2023-06-22T06:20:17;14.77;;;8.00;;
21810;SDS011;11067;48.788;9.208;2023-06-22T06:22:43;9.95;;;5.90;;
21810;SDS011;11067;48.788;9.208;2023-06-22T06:25:09;8.52;;;5.50;;
21810;SDS011;11067;48.788;9.208;2023-06-22T06:27:41;9.48;;;5.22;;
21810;SDS011;11067;48.788;9.208;2023-06-22T06:30:07;9.43;;;5.40;;
21810;SDS011;11067;48.788;9.208;2023-06-22T06:32:33;8.63;;;5.50;;
21810;SDS011;11067;48.788;9.208;2023-06-22T06:34:59;6.45;;;5.05;;
21810;SDS011;11067;48.788;9.208;2023-06-22T06:37:25;8.00;;;5.40;;
21810;SDS011;11067;48.788;9.208;2023-06-22T06:39:52;8.70;;;5.47;;
21810;SDS011;11067;48.788;9.208;2023-06-22T06:42:18;8.05;;;4.70;;
21810;SDS011;11067;48.788;9.208;2023-06-22T06:44:44;7.35;;;4.93;;
21810;SDS011;11067;48.788;9.208;2023-06-22T06:47:11;6.28;;;4.50;;
21810;SDS011;11067;48.788;9.208;2023-06-22T06:49:36;6.70;;;4.90;;
21810;SDS011;11067;48.788;9.208;2023-06-22T06:52:02;9.15;;;5.20;;
21810;SDS011;11067;48.788;9.208;2023-06-22T06:54:28;7.72;;;4.85;;
21810;SDS011;11067;48.788;9.208;2023-06-22T06:56:54;8.70;;;5.32;;
21810;SDS011;11067;48.788;9.208;2023-06-22T06:59:20;8.30;;;5.23;;
21810;SDS011;11067;48.788;9.208;2023-06-22T07:01:46;8.27;;;4.70;;
21810;SDS011;11067;48.788;9.208;2023-06-22T07:04:13;9.63;;;4.80;;
21810;SDS011;11067;48.788;9.208;2023-06-22T07:06:39;7.17;;;5.03;;
21810;SDS011;11067;48.788;9.208;2023-06-22T07:09:05;8.68;;;5.03;;
21810;SDS011;11067;48.788;9.208;2023-06-22T07:11:31;7.43;;;4.45;;
21810;SDS011;11067;48.788;9.208;2023-06-22T07:13:57;6.00;;;4.43;;
21810;SDS011;11067;48.788;9.208;2023-06-22T07:16:23;7.82;;;4.65;;
21810;SDS011;11067;48.788;9.208;2023-06-22T07:18:50;11.03;;;4.80;;
21810;SDS011;11067;48.788;9.208;2023-06-22T07:21:16;11.13;;;4.80;;
21810;SDS011;11067;48.788;9.208;2023-06-22T07:23:42;7.50;;;4.70;;
21810;SDS011;11067;48.788;9.208;2023-06-22T07:26:08;7.27;;;4.70;;
21810;SDS011;11067;48.788;9.208;2023-06-22T07:28:34;5.85;;;4.40;;
21810;SDS011;11067;48.788;9.208;2023-06-22T07:31:02;8.97;;;4.70;;
21810;SDS011;11067;48.788;9.208;2023-06-22T07:33:29;9.20;;;4.43;;
21810;SDS011;11067;48.788;9.208;2023-06-22T07:35:55;8.13;;;4.40;;
21810;SDS011;11067;48.788;9.208;2023-06-22T07:38:21;9.10;;;4.25;;
21810;SDS011;11067;48.788;9.208;2023-06-22T07:40:47;7.15;;;5.05;;
21810;SDS011;11067;48.788;9.208;2023-06-22T07:43:13;9.88;;;4.50;;
21810;SDS011;11067;48.788;9.208;2023-06-22T07:45:39;7.17;;;4.27;;
21810;SDS011;11067;48.788;9.208;2023-06-22T07:48:07;10.30;;;4.43;;
21810;SDS011;11067;48.788;9.208;2023-06-22T07:50:32;12.15;;;5.20;;
21810;SDS011;11067;48.788;9.208;2023-06-22T07:52:58;7.68;;;4.05;;
21810;SDS011;11067;48.788;9.208;2023-06-22T07:55:24;6.45;;;4.57;;
21810;SDS011;11067;48.788;9.208;2023-06-22T07:57:50;7.75;;;4.30;;
21810;SDS011;11067;48.788;9.208;2023-06-22T08:00:17;8.70;;;4.28;;
21810;SDS011;11067;48.788;9.208;2023-06-22T08:02:44;6.57;;;4.20;;
21810;SDS011;11067;48.788;9.208;2023-06-22T08:05:10;9.00;;;4.60;;
21810;SDS011;11067;48.788;9.208;2023-06-22T08:07:37;6.45;;;4.15;;
21810;SDS011;11067;48.788;9.208;2023-06-22T08:10:04;8.68;;;4.35;;
21810;SDS011;11067;48.788;9.208;2023-06-22T08:12:30;6.13;;;4.33;;
21810;SDS011;11067;48.788;9.208;2023-06-22T08:14:56;7.27;;;4.33;;
21810;SDS011;11067;48.788;9.208;2023-06-22T08:17:23;7.18;;;4.32;;
21810;SDS011;11067;48.788;9.208;2023-06-22T08:19:49;6.45;;;4.60;;
21810;SDS011;11067;48.788;9.208;2023-06-22T08:22:15;9.15;;;4.68;;
21810;SDS011;11067;48.788;9.208;2023-06-22T08:24:41;8.77;;;4.47;;
21810;SDS011;11067;48.788;9.208;2023-06-22T08:27:07;7.60;;;4.28;;
21810;SDS011;11067;48.788;9.208;2023-06-22T08:29:34;7.55;;;4.50;;
21810;SDS011;11067;48.788;9.208;2023-06-22T08:32:02;7.43;;;4.30;;
21810;SDS011;11067;48.788;9.208;2023-06-22T08:34:28;7.05;;;3.90;;
21810;SDS011;11067;48.788;9.208;2023-06-22T08:36:53;6.17;;;3.97;;
21810;SDS011;11067;48.788;9.208;2023-06-22T08:39:19;7.13;;;4.22;;
21810;SDS011;11067;48.788;9.208;2023-06-22T08:41:48;8.73;;;4.28;;
21810;SDS011;11067;48.788;9.208;2023-06-22T08:44:16;6.72;;;4.13;;
21810;SDS011;11067;48.788;9.208;2023-06-22T08:46:42;10.47;;;4.80;;
21810;SDS011;11067;48.788;9.208;2023-06-22T08:49:08;10.98;;;4.68;;
21810;SDS011;11067;48.788;9.208;2023-06-22T08:51:35;10.88;;;4.53;;
21810;SDS011;11067;48.788;9.208;2023-06-22T08:54:00;7.28;;;4.60;;
21810;SDS011;11067;48.788;9.208;2023-06-22T08:56:26;6.93;;;4.17;;
21810;SDS011;11067;48.788;9.208;2023-06-22T08:58:52;6.30;;;4.20;;
21810;SDS011;11067;48.788;9.208;2023-06-22T09:01:18;10.13;;;4.70;;
21810;SDS011;11067;48.788;9.208;2023-06-22T09:03:44;7.50;;;4.30;;
21810;SDS011;11067;48.788;9.208;2023-06-22T09:06:19;9.15;;;4.25;;
21810;SDS011;11067;48.788;9.208;2023-06-22T09:08:46;10.50;;;4.50;;
21810;SDS011;11067;48.788;9.208;2023-06-22T09:11:12;9.18;;;5.00;;
21810;SDS011;11067;48.788;9.208;2023-06-22T09:13:38;8.95;;;4.50;;
21810;SDS011;11067;48.788;9.208;2023-06-22T09:16:04;8.52;;;4.35;;
21810;SDS011;11067;48.788;9.208;2023-06-22T09:18:30;8.27;;;4.50;;
21810;SDS011;11067;48.788;9.208;2023-06-22T09:20:56;10.55;;;4.80;;
21810;SDS011;11067;48.788;9.208;2023-06-22T09:23:22;10.30;;;4.07;;
21810;SDS011;11067;48.788;9.208;2023-06-22T09:25:48;7.03;;;4.20;;
21810;SDS011;11067;48.788;9.208;2023-06-22T09:28:14;12.20;;;4.72;;
21810;SDS011;11067;48.788;9.208;2023-06-22T09:30:40;7.13;;;4.30;;
21810;SDS011;11067;48.788;9.208;2023-06-22T09:33:06;12.13;;;4.70;;
21810;SDS011;11067;48.788;9.208;2023-06-22T09:35:32;11.77;;;4.70;;
21810;SDS011;11067;48.788;9.208;2023-06-22T09:37:58;8.93;;;4.38;;
21810;SDS011;11067;48.788;9.208;2023-06-22T09:40:24;9.23;;;4.77;;
21810;SDS011;11067;48.788;9.208;2023-06-22T09:42:50;9.75;;;4.13;;
21810;SDS011;11067;48.788;9.208;2023-06-22T09:45:16;10.82;;;4.30;;
21810;SDS011;11067;48.788;9.208;2023-06-22T09:47:42;7.68;;;4.43;;
21810;SDS011;11067;48.788;9.208;2023-06-22T09:50:08;11.75;;;4.70;;
21810;SDS011;11067;48.788;9.208;2023-06-22T09:52:34;7.82;;;4.65;;
21810;SDS011;11067;48.788;9.208;2023-06-22T09:55:00;9.75;;;4.45;;
21810;SDS011;11067;48.788;9.208;2023-06-22T09:57:28;13.60;;;4.93;;
21810;SDS011;11067;48.788;9.208;2023-06-22T09:59:55;7.57;;;4.40;;
21810;SDS011;11067;48.788;9.208;2023-06-22T10:02:21;9.18;;;4.60;;
21810;SDS011;11067;48.788;9.208;2023-06-22T10:04:47;9.75;;;4.57;;
21810;SDS011;11067;48.788;9.208;2023-06-22T10:07:13;8.82;;;4.50;;
21810;SDS011;11067;48.788;9.208;2023-06-22T10:09:40;7.50;;;4.30;;
21810;SDS011;11067;48.788;9.208;2023-06-22T10:12:06;9.65;;;4.40;;
21810;SDS011;11067;48.788;9.208;2023-06-22T10:14:32;9.52;;;4.95;;
21810;SDS011;11067;48.788;9.208;2023-06-22T10:16:58;11.48;;;4.85;;
21810;SDS011;11067;48.788;9.208;2023-06-22T10:19:24;11.00;;;4.63;;
21810;SDS011;11067;48.788;9.208;2023-06-22T10:21:50;7.97;;;4.68;;
21810;SDS011;11067;48.788;9.208;2023-06-22T10:24:17;12.60;;;4.83;;
21810;SDS011;11067;48.788;9.208;2023-06-22T10:26:42;14.00;;;5.13;;
21810;SDS011;11067;48.788;9.208;2023-06-22T10:29:08;8.15;;;4.43;;
21810;SDS011;11067;48.788;9.208;2023-06-22T10:31:34;13.37;;;5.20;;
21810;SDS011;11067;48.788;9.208;2023-06-22T10:34:00;8.50;;;5.10;;
21810;SDS011;11067;48.788;9.208;2023-06-22T10:36:26;13.52;;;4.90;;
21810;SDS011;11067;48.788;9.208;2023-06-22T10:38:52;11.03;;;4.80;;
21810;SDS011;11067;48.788;9.208;2023-06-22T10:41:19;13.18;;;5.07;;
21810;SDS011;11067;48.788;9.208;2023-06-22T10:43:45;10.23;;;4.97;;
21810;SDS011;11067;48.788;9.208;2023-06-22T10:46:11;14.32;;;4.55;;
21810;SDS011;11067;48.788;9.208;2023-06-22T10:48:37;8.35;;;4.82;;
21810;SDS011;11067;48.788;9.208;2023-06-22T10:51:03;11.73;;;4.80;;
21810;SDS011;11067;48.788;9.208;2023-06-22T10:53:29;11.88;;;5.07;;
21810;SDS011;11067;48.788;9.208;2023-06-22T10:55:54;9.88;;;4.88;;
21810;SDS011;11067;48.788;9.208;2023-06-22T10:58:20;10.57;;;4.35;;
21810;SDS011;11067;48.788;9.208;2023-06-22T11:00:46;11.75;;;5.00;;
21810;SDS011;11067;48.788;9.208;2023-06-22T11:03:12;13.83;;;5.60;;
21810;SDS011;11067;48.788;9.208;2023-06-22T11:05:39;13.00;;;4.93;;
21810;SDS011;11067;48.788;9.208;2023-06-22T11:08:05;9.27;;;4.63;;
21810;SDS011;11067;48.788;9.208;2023-06-22T11:10:31;9.70;;;4.72;;
21810;SDS011;11067;48.788;9.208;2023-06-22T11:12:57;12.75;;;4.90;;
21810;SDS011;11067;48.788;9.208;2023-06-22T11:15:23;8.07;;;4.70;;
21810;SDS011;11067;48.788;9.208;2023-06-22T11:17:49;9.87;;;4.40;;
21810;SDS011;11067;48.788;9.208;2023-06-22T11:20:15;12.70;;;5.40;;
21810;SDS011;11067;48.788;9.208;2023-06-22T11:22:41;10.35;;;4.25;;
21810;SDS011;11067;48.788;9.208;2023-06-22T11:25:07;10.33;;;4.77;;
21810;SDS011;11067;48.788;9.208;2023-06-22T11:27:33;12.23;;;4.57;;
21810;SDS011;11067;48.788;9.208;2023-06-22T11:29:59;12.38;;;4.88;;
21810;SDS011;11067;48.788;9.208;2023-06-22T11:32:25;8.75;;;4.50;;
21810;SDS011;11067;48.788;9.208;2023-06-22T11:34:51;11.40;;;5.43;;
21810;SDS011;11067;48.788;9.208;2023-06-22T11:37:17;14.52;;;4.95;;
21810;SDS011;11067;48.788;9.208;2023-06-22T11:39:43;11.45;;;4.68;;
21810;SDS011;11067;48.788;9.208;2023-06-22T11:42:09;13.48;;;4.93;;
21810;SDS011;11067;48.788;9.208;2023-06-22T11:44:35;11.63;;;4.93;;
21810;SDS011;11067;48.788;9.208;2023-06-22T11:47:01;12.95;;;5.10;;
21810;SDS011;11067;48.788;9.208;2023-06-22T11:49:29;10.68;;;5.13;;
21810;SDS011;11067;48.788;9.208;2023-06-22T11:51:55;9.48;;;5.40;;
21810;SDS011;11067;48.788;9.208;2023-06-22T11:54:21;13.10;;;5.50;;
21810;SDS011;11067;48.788;9.208;2023-06-22T11:56:47;8.52;;;4.72;;
21810;SDS011;11067;48.788;9.208;2023-06-22T11:59:13;16.23;;;5.63;;
21810;SDS011;11067;48.788;9.208;2023-06-22T12:01:39;11.98;;;4.90;;
21810;SDS011;11067;48.788;9.208;2023-06-22T12:04:05;10.85;;;5.18;;
21810;SDS011;11067;48.788;9.208;2023-06-22T12:06:31;11.03;;;5.37;;
21810;SDS011;11067;48.788;9.208;2023-06-22T12:08:58;15.30;;;5.28;;
21810;SDS011;11067;48.788;9.208;2023-06-22T12:11:24;9.67;;;4.60;;
21810;SDS011;11067;48.788;9.208;2023-06-22T12:13:50;11.30;;;4.82;;
21810;SDS011;11067;48.788;9.208;2023-06-22T12:16:16;16.00;;;5.05;;
21810;SDS011;11067;48.788;9.208;2023-06-22T12:18:42;10.73;;;4.40;;
21810;SDS011;11067;48.788;9.208;2023-06-22T12:21:08;13.52;;;4.50;;
21810;SDS011;11067;48.788;9.208;2023-06-22T12:23:34;10.90;;;5.03;;
21810;SDS011;11067;48.788;9.208;2023-06-22T12:25:59;10.73;;;4.38;;
21810;SDS011;11067;48.788;9.208;2023-06-22T12:28:26;9.33;;;4.23;;
21810;SDS011;11067;48.788;9.208;2023-06-22T12:30:52;13.43;;;4.78;;
21810;SDS011;11067;48.788;9.208;2023-06-22T12:33:18;12.48;;;4.97;;
21810;SDS011;11067;48.788;9.208;2023-06-22T12:35:44;10.45;;;4.88;;
21810;SDS011;11067;48.788;9.208;2023-06-22T12:38:10;13.77;;;4.90;;
21810;SDS011;11067;48.788;9.208;2023-06-22T12:40:36;9.17;;;4.90;;
21810;SDS011;11067;48.788;9.208;2023-06-22T12:43:02;14.93;;;5.47;;
21810;SDS011;11067;48.788;9.208;2023-06-22T12:45:28;13.20;;;5.13;;
21810;SDS011;11067;48.788;9.208;2023-06-22T12:47:56;30.83;;;10.35;;
21810;SDS011;11067;48.788;9.208;2023-06-22T12:50:22;10.48;;;4.90;;
21810;SDS011;11067;48.788;9.208;2023-06-22T12:52:48;12.57;;;5.10;;
21810;SDS011;11067;48.788;9.208;2023-06-22T12:55:14;10.10;;;4.87;;
21810;SDS011;11067;48.788;9.208;2023-06-22T12:57:40;12.55;;;5.20;;
21810;SDS011;11067;48.788;9.208;2023-06-22T13:00:06;12.15;;;5.18;;
21810;SDS011;11067;48.788;9.208;2023-06-22T13:02:34;12.45;;;5.18;;
21810;SDS011;11067;48.788;9.208;2023-06-22T13:05:02;14.25;;;5.15;;
21810;SDS011;11067;48.788;9.208;2023-06-22T13:07:30;21.60;;;5.90;;
21810;SDS011;11067;48.788;9.208;2023-06-22T13:09:56;12.43;;;5.57;;
21810;SDS011;11067;48.788;9.208;2023-06-22T13:12:22;16.17;;;5.50;;
21810;SDS011;11067;48.788;9.208;2023-06-22T13:14:48;15.70;;;5.88;;
21810;SDS011;11067;48.788;9.208;2023-06-22T13:17:14;16.43;;;5.40;;
21810;SDS011;11067;48.788;9.208;2023-06-22T13:19:40;13.70;;;4.90;;
21810;SDS011;11067;48.788;9.208;2023-06-22T13:22:09;11.70;;;5.22;;
21810;SDS011;11067;48.788;9.208;2023-06-22T13:24:51;9.15;;;4.75;;
21810;SDS011;11067;48.788;9.208;2023-06-22T13:27:19;12.60;;;5.03;;
21810;SDS011;11067;48.788;9.208;2023-06-22T13:29:45;7.00;;;4.63;;
21810;SDS011;11067;48.788;9.208;2023-06-22T13:32:10;17.60;;;5.10;;
21810;SDS011;11067;48.788;9.208;2023-06-22T13:34:36;9.20;;;5.07;;
21810;SDS011;11067;48.788;9.208;2023-06-22T13:37:02;16.95;;;6.07;;
21810;SDS011;11067;48.788;9.208;2023-06-22T13:39:29;9.82;;;4.93;;
21810;SDS011;11067;48.788;9.208;2023-06-22T13:41:55;10.07;;;5.18;;
21810;SDS011;11067;48.788;9.208;2023-06-22T13:44:21;15.13;;;4.95;;
21810;SDS011;11067;48.788;9.208;2023-06-22T13:46:47;12.87;;;5.27;;
21810;SDS011;11067;48.788;9.208;2023-06-22T13:49:13;11.25;;;4.85;;
21810;SDS011;11067;48.788;9.208;2023-06-22T13:51:39;11.15;;;4.97;;
21810;SDS011;11067;48.788;9.208;2023-06-22T13:54:05;12.67;;;5.17;;
21810;SDS011;11067;48.788;9.208;2023-06-22T13:56:32;9.90;;;5.03;;
21810;SDS011;11067;48.788;9.208;2023-06-22T13:58:58;9.15;;;4.93;;
21810;SDS011;11067;48.788;9.208;2023-06-22T14:01:24;11.23;;;5.10;;
21810;SDS011;11067;48.788;9.208;2023-06-22T14:03:50;14.05;;;4.75;;
21810;SDS011;11067;48.788;9.208;2023-06-22T14:06:16;11.27;;;5.10;;
21810;SDS011;11067;48.788;9.208;2023-06-22T14:08:42;9.35;;;4.63;;
21810;SDS011;11067;48.788;9.208;2023-06-22T14:11:08;14.73;;;6.07;;
21810;SDS011;11067;48.788;9.208;2023-06-22T14:13:34;15.52;;;5.10;;
21810;SDS011;11067;48.788;9.208;2023-06-22T14:16:00;12.98;;;4.50;;
21810;SDS011;11067;48.788;9.208;2023-06-22T14:18:26;14.95;;;4.95;;
21810;SDS011;11067;48.788;9.208;2023-06-22T14:20:52;12.05;;;5.00;;
21810;SDS011;11067;48.788;9.208;2023-06-22T14:23:18;9.98;;;4.53;;
21810;SDS011;11067;48.788;9.208;2023-06-22T14:25:44;10.43;;;4.20;;
21810;SDS011;11067;48.788;9.208;2023-06-22T14:28:10;13.10;;;5.18;;
21810;SDS011;11067;48.788;9.208;2023-06-22T14:30:36;10.83;;;4.13;;
21810;SDS011;11067;48.788;9.208;2023-06-22T14:33:02;9.38;;;4.30;;
21810;SDS011;11067;48.788;9.208;2023-06-22T14:35:28;10.60;;;4.43;;
21810;SDS011;11067;48.788;9.208;2023-06-22T14:37:54;9.07;;;4.40;;
21810;SDS011;11067;48.788;9.208;2023-06-22T14:40:20;13.23;;;4.22;;
21810;SDS011;11067;48.788;9.208;2023-06-22T14:42:45;10.43;;;4.22;;